createdAt,value
2018-10-03T00:01:19.780Z,66.60
2018-10-03T00:03:51.137Z,66.60
2018-10-03T00:06:21.916Z,66.50
2018-10-03T00:08:53.060Z,66.70
2018-10-03T00:11:23.333Z,66.90
2018-10-03T00:13:59.769Z,67.00
2018-10-03T00:16:31.462Z,67.30
2018-10-03T00:19:10.801Z,67.40
2018-10-03T00:21:51.802Z,67.60
2018-10-03T00:24:23.343Z,67.80
2018-10-03T00:26:53.926Z,67.90
2018-10-03T00:29:24.101Z,68.00
2018-10-03T00:31:54.398Z,68.20
2018-10-03T00:34:24.250Z,68.40
2018-10-03T00:36:55.830Z,68.50
2018-10-03T00:39:29.005Z,69.10
2018-10-03T00:42:00.764Z,69.40
2018-10-03T00:44:30.325Z,70.00
2018-10-03T00:47:09.805Z,70.70
2018-10-03T00:49:41.079Z,71.10
2018-10-03T00:52:13.680Z,71.60
2018-10-03T00:54:47.863Z,72.00
2018-10-03T00:57:24.317Z,72.50
2018-10-03T00:59:55.387Z,72.60
2018-10-03T01:02:26.810Z,73.10
2018-10-03T01:04:58.035Z,73.50
2018-10-03T01:07:28.085Z,74.10
2018-10-03T01:09:59.707Z,74.40
2018-10-03T01:12:31.738Z,74.70
2018-10-03T01:15:03.794Z,75.30
2018-10-03T01:17:35.519Z,75.50
2018-10-03T01:20:13.565Z,75.60
2018-10-03T01:22:50.393Z,76.00
2018-10-03T01:25:22.904Z,76.20
2018-10-03T01:27:53.614Z,76.50
2018-10-03T01:30:35.345Z,76.80
2018-10-03T01:33:10.788Z,77.00
2018-10-03T01:35:42.669Z,77.40
2018-10-03T01:38:14.530Z,77.80
2018-10-03T01:40:46.713Z,78.30
2018-10-03T01:43:24.256Z,78.70
2018-10-03T01:46:00.213Z,79.40
2018-10-03T01:48:35.625Z,79.40
2018-10-03T01:51:06.505Z,80.10
2018-10-03T01:53:37.024Z,81.00
2018-10-03T01:56:07.361Z,81.20
2018-10-03T01:58:37.112Z,81.70
2018-10-03T02:01:07.587Z,82.00
2018-10-03T02:03:39.174Z,82.10
2018-10-03T02:06:09.748Z,82.50
2018-10-03T02:08:45.196Z,82.60
2018-10-03T02:11:15.546Z,82.90
2018-10-03T02:13:50.823Z,83.10
2018-10-03T02:16:27.724Z,83.40
2018-10-03T02:18:59.531Z,83.80
2018-10-03T02:21:29.427Z,83.60
2018-10-03T02:24:01.335Z,83.80
2018-10-03T02:26:32.586Z,84.10
2018-10-03T02:29:06.143Z,84.20
2018-10-03T02:31:37.358Z,84.20
2018-10-03T02:34:07.698Z,84.30
2018-10-03T02:36:41.473Z,84.50
2018-10-03T02:39:13.258Z,84.50
2018-10-03T02:41:50.825Z,84.50
2018-10-03T02:44:23.470Z,84.70
2018-10-03T02:46:55.930Z,84.60
2018-10-03T02:49:26.262Z,84.40
2018-10-03T02:51:57.903Z,84.50
2018-10-03T02:54:27.520Z,84.50
2018-10-03T02:56:59.212Z,84.50
2018-10-03T02:59:30.479Z,84.70
2018-10-03T03:02:01.229Z,84.50
2018-10-03T03:04:38.426Z,84.80
2018-10-03T03:07:10.709Z,85.10
2018-10-03T03:09:45.933Z,85.00
2018-10-03T03:12:17.486Z,85.20
2018-10-03T03:14:48.358Z,85.30
2018-10-03T03:17:20.381Z,85.40
2018-10-03T03:19:57.595Z,85.50
2018-10-03T03:22:28.322Z,85.60
2018-10-03T03:24:59.548Z,85.80
2018-10-03T03:27:30.858Z,85.70
2018-10-03T03:30:02.656Z,85.70
2018-10-03T03:32:33.375Z,85.60
2018-10-03T03:35:03.423Z,86.30
2018-10-03T03:37:33.480Z,86.40
2018-10-03T03:40:08.196Z,86.50
2018-10-03T03:42:46.795Z,86.70
2018-10-03T03:45:26.414Z,87.30
2018-10-03T03:48:01.847Z,86.50
2018-10-03T03:50:32.265Z,86.80
2018-10-03T03:53:06.935Z,87.20
2018-10-03T03:55:37.351Z,87.10
2018-10-03T03:58:08.071Z,87.40
2018-10-03T04:00:45.960Z,87.90
2018-10-03T04:03:22.320Z,87.60
2018-10-03T04:05:54.003Z,87.70
2018-10-03T04:08:25.903Z,87.90
2018-10-03T04:10:58.096Z,88.00
2018-10-03T04:13:29.172Z,88.20
2018-10-03T04:16:00.171Z,87.80
2018-10-03T04:18:30.621Z,87.70
2018-10-03T04:21:09.738Z,88.10
2018-10-03T04:23:40.879Z,88.20
2018-10-03T04:26:12.593Z,88.40
2018-10-03T04:28:48.796Z,88.40
2018-10-03T04:31:19.418Z,88.50
2018-10-03T04:33:56.057Z,89.30
2018-10-03T04:36:32.151Z,88.60
2018-10-03T04:39:09.513Z,88.60
2018-10-03T04:41:47.470Z,88.80
2018-10-03T04:44:17.595Z,88.70
2018-10-03T04:46:49.645Z,88.50
2018-10-03T04:49:21.243Z,88.90
2018-10-03T04:51:59.598Z,88.90
2018-10-03T04:54:30.337Z,88.70
2018-10-03T04:57:06.182Z,88.70
2018-10-03T04:59:38.385Z,88.70
2018-10-03T05:02:09.781Z,88.40
2018-10-03T05:04:50.543Z,88.40
2018-10-03T05:07:20.952Z,87.80
2018-10-03T05:09:53.086Z,88.00
2018-10-03T05:12:28.249Z,87.80
2018-10-03T05:15:01.837Z,87.80
2018-10-03T05:17:40.180Z,87.70
2018-10-03T05:20:11.085Z,87.60
2018-10-03T05:22:48.446Z,87.20
2018-10-03T05:25:20.721Z,87.20
2018-10-03T05:27:50.486Z,87.30
2018-10-03T05:30:22.387Z,87.00
2018-10-03T05:32:52.439Z,86.80
2018-10-03T05:35:23.836Z,86.70
2018-10-03T05:37:56.473Z,86.30
2018-10-03T05:40:27.466Z,86.60
2018-10-03T05:43:02.762Z,86.00
2018-10-03T05:45:33.154Z,86.10
2018-10-03T05:48:05.887Z,86.00
2018-10-03T05:50:41.069Z,86.00
2018-10-03T05:53:11.888Z,85.90
2018-10-03T05:55:47.891Z,86.00
2018-10-03T05:58:19.793Z,86.10
2018-10-03T06:00:59.913Z,85.90
2018-10-03T06:03:31.574Z,86.20
2018-10-03T06:06:02.039Z,86.30
2018-10-03T06:08:35.059Z,86.10
2018-10-03T06:11:09.509Z,86.30
2018-10-03T06:13:40.161Z,86.40
2018-10-03T06:16:15.341Z,86.60
2018-10-03T06:18:50.307Z,86.70
2018-10-03T06:21:22.138Z,87.00
2018-10-03T06:23:53.922Z,86.90
2018-10-03T06:26:25.944Z,87.30
2018-10-03T06:28:57.227Z,86.70
2018-10-03T06:31:28.654Z,86.70
2018-10-03T06:34:00.939Z,86.60
2018-10-03T06:36:33.993Z,86.50
2018-10-03T06:39:07.783Z,86.50
2018-10-03T06:44:18.072Z,86.20
2018-10-03T06:46:51.588Z,85.80
2018-10-03T06:49:23.287Z,86.00
2018-10-03T06:51:58.041Z,86.10
2018-10-03T06:54:33.535Z,86.10
2018-10-03T06:57:06.445Z,85.80
2018-10-03T06:59:39.677Z,85.90
2018-10-03T07:02:12.366Z,85.90
2018-10-03T07:04:50.870Z,86.20
2018-10-03T07:07:26.244Z,86.00
2018-10-03T07:09:59.283Z,85.70
2018-10-03T07:12:30.670Z,85.60
2018-10-03T07:15:02.853Z,85.80
2018-10-03T07:17:34.015Z,85.90
2018-10-03T07:20:07.983Z,85.70
2018-10-03T07:22:38.994Z,85.80
2018-10-03T07:25:15.085Z,85.70
2018-10-03T07:27:46.457Z,85.80
2018-10-03T07:30:18.286Z,85.50
2018-10-03T07:32:57.477Z,85.40
2018-10-03T07:35:29.736Z,85.30
2018-10-03T07:38:07.092Z,85.20
2018-10-03T07:40:45.849Z,85.20
2018-10-03T07:43:17.864Z,85.00
2018-10-03T07:45:48.137Z,85.20
2018-10-03T07:48:19.862Z,85.40
2018-10-03T07:50:50.992Z,85.10
2018-10-03T07:53:21.775Z,85.30
2018-10-03T07:55:56.405Z,85.30
2018-10-03T07:58:27.517Z,85.10
2018-10-03T08:01:03.924Z,84.80
2018-10-03T08:03:43.090Z,85.80
2018-10-03T08:06:16.011Z,85.20
2018-10-03T08:08:55.268Z,85.20
2018-10-03T08:11:37.315Z,84.80
2018-10-03T08:14:08.292Z,84.80
2018-10-03T08:16:40.818Z,84.80
2018-10-03T08:19:12.805Z,84.40
2018-10-03T08:21:48.491Z,84.10
2018-10-03T08:24:19.547Z,83.80
2018-10-03T08:26:50.877Z,83.70
2018-10-03T08:29:20.844Z,83.50
2018-10-03T08:31:55.903Z,83.70
2018-10-03T08:34:27.280Z,83.60
2018-10-03T08:36:59.082Z,83.50
2018-10-03T08:39:30.027Z,83.90
2018-10-03T08:42:02.939Z,84.30
2018-10-03T08:44:37.520Z,84.30
2018-10-03T08:47:14.354Z,84.20
2018-10-03T08:49:54.202Z,84.60
2018-10-03T08:52:25.185Z,84.90
2018-10-03T08:54:56.739Z,84.70
2018-10-03T08:57:31.798Z,85.30
2018-10-03T09:00:12.977Z,86.40
2018-10-03T09:02:51.023Z,86.30
2018-10-03T09:05:22.664Z,87.20
2018-10-03T09:07:57.662Z,87.20
2018-10-03T09:10:29.732Z,87.00
2018-10-03T09:13:00.450Z,86.90
2018-10-03T09:15:31.265Z,86.40
2018-10-03T09:18:01.997Z,86.70
2018-10-03T09:20:33.302Z,86.40
2018-10-03T09:23:03.614Z,86.50
2018-10-03T09:25:34.957Z,86.70
2018-10-03T09:28:07.384Z,86.90
2018-10-03T09:30:37.926Z,87.10
2018-10-03T09:33:08.129Z,87.30
2018-10-03T09:35:39.975Z,87.30
2018-10-03T09:38:10.725Z,87.10
2018-10-03T09:40:49.063Z,87.10
2018-10-03T09:43:21.369Z,87.00
2018-10-03T09:46:01.744Z,85.40
2018-10-03T09:48:36.713Z,85.20
2018-10-03T09:51:07.956Z,84.30
2018-10-03T09:53:40.330Z,84.40
2018-10-03T09:56:11.870Z,83.30
2018-10-03T09:58:49.533Z,82.40
2018-10-03T10:01:29.386Z,82.30
2018-10-03T10:04:01.817Z,82.00
2018-10-03T10:06:32.899Z,81.30
2018-10-03T10:09:05.576Z,81.00
2018-10-03T10:11:49.792Z,80.70
2018-10-03T10:14:20.824Z,80.50
2018-10-03T10:16:53.417Z,80.10
2018-10-03T10:19:24.531Z,78.50
2018-10-03T10:21:55.861Z,78.30
2018-10-03T10:24:30.518Z,78.20
2018-10-03T10:27:03.153Z,78.10
2018-10-03T10:29:33.847Z,78.30
2018-10-03T10:32:09.633Z,77.90
2018-10-03T10:34:40.897Z,78.10
2018-10-03T10:37:13.209Z,77.90
2018-10-03T10:39:48.826Z,76.70
2018-10-03T10:42:19.802Z,77.40
2018-10-03T10:44:51.895Z,75.50
2018-10-03T10:47:33.294Z,75.70
2018-10-03T10:50:05.490Z,75.30
2018-10-03T10:52:46.983Z,75.20
2018-10-03T10:55:17.333Z,75.30
2018-10-03T10:57:50.007Z,76.30
2018-10-03T11:00:21.471Z,77.40
2018-10-03T11:02:56.573Z,78.30
2018-10-03T11:05:27.790Z,78.80
2018-10-03T11:07:59.411Z,80.10
2018-10-03T11:10:30.963Z,81.00
2018-10-03T11:13:02.869Z,82.40
2018-10-03T11:15:33.974Z,83.00
2018-10-03T11:18:04.449Z,84.00
2018-10-03T11:27:37.341Z,85.30
2018-10-03T11:30:08.299Z,85.50
2018-10-03T11:32:40.365Z,85.60
2018-10-03T11:35:12.243Z,85.20
2018-10-03T11:37:48.999Z,85.50
2018-10-03T11:40:19.086Z,84.90
2018-10-03T11:42:51.453Z,83.90
2018-10-03T11:45:26.651Z,83.20
2018-10-03T11:47:57.552Z,82.20
2018-10-03T11:50:29.880Z,82.10
2018-10-03T11:53:05.110Z,80.70
2018-10-03T11:55:35.848Z,80.00
2018-10-03T11:58:11.252Z,80.50
2018-10-03T12:00:45.472Z,78.10
2018-10-03T12:03:18.301Z,77.40
2018-10-03T12:05:51.482Z,76.80
2018-10-03T12:08:27.141Z,76.40
2018-10-03T12:10:58.567Z,74.70
2018-10-03T12:13:34.618Z,74.90
2018-10-03T12:16:06.743Z,74.10
2018-10-03T12:18:47.722Z,73.40
2018-10-03T12:21:19.236Z,72.40
2018-10-03T12:23:50.610Z,72.50
2018-10-03T12:26:22.590Z,71.70
2018-10-03T12:28:59.051Z,71.30
2018-10-03T12:31:36.197Z,71.00
2018-10-03T12:34:09.348Z,69.20
2018-10-03T12:36:47.106Z,68.30
2018-10-03T12:39:17.629Z,67.90
2018-10-03T12:41:50.668Z,65.90
2018-10-03T12:44:22.889Z,65.70
2018-10-03T12:46:54.447Z,66.10
2018-10-03T12:49:25.922Z,66.40
2018-10-03T12:51:56.740Z,66.10
2018-10-03T12:54:27.669Z,65.50
2018-10-03T12:56:58.961Z,65.30
2018-10-03T12:59:33.941Z,65.10
2018-10-03T13:02:08.855Z,65.00
2018-10-03T13:04:39.933Z,65.20
2018-10-03T13:07:15.414Z,65.60
2018-10-03T13:09:46.283Z,65.40
2018-10-03T13:12:21.401Z,65.10
2018-10-03T13:14:56.951Z,64.90
2018-10-03T13:17:28.398Z,63.90
2018-10-03T13:19:58.931Z,64.10
2018-10-03T13:22:34.182Z,63.80
2018-10-03T13:25:05.642Z,64.60
2018-10-03T13:27:37.185Z,64.60
2018-10-03T13:30:07.444Z,64.60
2018-10-03T13:32:45.187Z,64.30
2018-10-03T13:35:19.803Z,64.60
2018-10-03T13:37:50.933Z,64.90
2018-10-03T13:40:20.821Z,65.00
2018-10-03T13:42:56.749Z,65.10
2018-10-03T13:45:31.579Z,65.00
2018-10-03T13:48:02.303Z,65.40
2018-10-03T13:50:35.044Z,65.70
2018-10-03T13:53:13.037Z,66.10
2018-10-03T13:55:49.045Z,66.40
2018-10-03T13:58:20.989Z,66.70
2018-10-03T14:00:57.548Z,67.00
2018-10-03T14:03:29.381Z,66.90
2018-10-03T14:06:00.700Z,66.60
2018-10-03T14:11:48.545Z,65.60
2018-10-03T14:14:21.318Z,65.00
2018-10-03T14:17:00.350Z,65.00
2018-10-03T14:19:35.925Z,64.50
2018-10-03T14:22:08.172Z,64.50
2018-10-03T14:24:49.336Z,64.50
2018-10-03T14:27:28.509Z,64.10
2018-10-03T14:30:02.027Z,64.40
2018-10-03T14:32:33.194Z,64.60
2018-10-03T14:35:04.529Z,65.00
2018-10-03T14:37:39.869Z,65.00
2018-10-03T14:40:10.761Z,65.20
2018-10-03T14:42:40.609Z,65.10
2018-10-03T14:45:12.652Z,65.30
2018-10-03T14:47:49.266Z,65.20
2018-10-03T14:50:21.379Z,64.40
2018-10-03T14:52:51.946Z,64.80
2018-10-03T14:55:23.756Z,64.50
2018-10-03T14:57:59.912Z,64.50
2018-10-03T15:00:37.555Z,64.40
2018-10-03T15:03:10.861Z,63.80
2018-10-03T15:05:45.085Z,63.80
2018-10-03T15:08:18.753Z,63.70
2018-10-03T15:10:50.416Z,63.60
2018-10-03T15:13:27.093Z,63.40
2018-10-03T15:15:57.440Z,63.50
2018-10-03T15:21:03.571Z,63.40
2018-10-03T15:23:41.476Z,63.50
2018-10-03T15:26:13.768Z,63.20
2018-10-03T15:28:45.788Z,62.60
2018-10-03T15:31:22.810Z,62.80
2018-10-03T15:34:00.840Z,62.60
2018-10-03T15:36:34.803Z,63.00
2018-10-03T15:39:10.145Z,63.30
2018-10-03T15:41:42.267Z,62.80
2018-10-03T15:44:19.612Z,61.40
2018-10-03T15:46:51.613Z,61.10
2018-10-03T15:49:31.355Z,60.60
2018-10-03T15:52:03.775Z,60.80
2018-10-03T15:54:40.553Z,59.40
2018-10-03T15:57:14.451Z,59.30
2018-10-03T15:59:49.681Z,59.30
2018-10-03T16:02:20.783Z,58.70
2018-10-03T16:04:52.941Z,58.80
2018-10-03T16:07:27.623Z,58.80
2018-10-03T16:10:04.107Z,58.40
2018-10-03T16:12:34.807Z,57.60
2018-10-03T16:15:05.931Z,57.30
2018-10-03T16:17:36.699Z,57.00
2018-10-03T16:20:08.752Z,57.00
2018-10-03T16:22:42.171Z,57.00
2018-10-03T16:25:16.677Z,56.60
2018-10-03T16:27:59.721Z,56.90
2018-10-03T16:30:33.989Z,56.90
2018-10-03T16:33:05.775Z,56.80
2018-10-03T16:35:38.595Z,56.80
2018-10-03T16:38:10.784Z,56.30
2018-10-03T16:40:43.972Z,56.40
2018-10-03T16:43:15.361Z,56.30
2018-10-03T16:45:49.105Z,57.00
2018-10-03T16:48:20.550Z,56.60
2018-10-03T16:50:55.926Z,56.70
2018-10-03T16:53:28.750Z,56.80
2018-10-03T16:55:59.543Z,56.90
2018-10-03T16:58:30.178Z,57.00
2018-10-03T17:03:50.127Z,57.00
2018-10-03T17:06:21.271Z,57.20
2018-10-03T17:08:52.775Z,57.40
2018-10-03T17:11:25.047Z,57.50
2018-10-03T17:14:32.374Z,57.60
2018-10-03T17:17:03.686Z,57.70
2018-10-03T17:19:36.007Z,57.80
2018-10-03T17:22:16.957Z,58.00
2018-10-03T17:24:46.944Z,58.00
2018-10-03T17:27:19.206Z,58.20
2018-10-03T17:29:49.622Z,58.10
2018-10-03T17:32:19.985Z,58.10
2018-10-03T17:34:52.271Z,58.20
2018-10-03T17:37:23.682Z,57.90
2018-10-03T17:39:55.779Z,58.80
2018-10-03T17:42:27.002Z,58.30
2018-10-03T17:45:04.696Z,58.60
2018-10-03T17:47:37.435Z,58.70
2018-10-03T17:50:08.604Z,58.50
2018-10-03T17:52:39.987Z,58.50
2018-10-03T17:55:16.463Z,58.40
2018-10-03T17:57:56.678Z,58.50
2018-10-03T18:00:30.222Z,58.50
2018-10-03T18:03:06.786Z,58.60
2018-10-03T18:05:37.272Z,58.40
2018-10-03T18:08:07.472Z,58.50
2018-10-03T18:10:38.568Z,58.30
2018-10-03T18:13:18.007Z,58.00
2018-10-03T18:15:51.123Z,58.10
2018-10-03T18:18:21.950Z,57.90
2018-10-03T18:20:54.411Z,58.10
2018-10-03T18:23:25.160Z,57.90
2018-10-03T18:26:01.488Z,57.90
2018-10-03T18:28:32.708Z,58.10
2018-10-03T18:31:03.258Z,58.00
2018-10-03T18:33:34.423Z,57.90
2018-10-03T18:36:14.652Z,57.80
2018-10-03T18:38:46.799Z,57.50
2018-10-03T18:41:18.913Z,57.20
2018-10-03T18:43:52.552Z,57.30
2018-10-03T18:46:28.726Z,57.20
2018-10-03T18:49:03.375Z,57.00
2018-10-03T18:51:37.009Z,57.00
2018-10-03T18:56:48.013Z,57.20
2018-10-03T18:59:24.890Z,57.20
2018-10-03T19:01:54.940Z,57.30
2018-10-03T19:04:28.630Z,57.30
2018-10-03T19:07:02.490Z,57.40
2018-10-03T19:10:41.445Z,57.70
2018-10-03T19:13:21.600Z,57.70
2018-10-03T19:15:53.568Z,58.10
2018-10-03T19:18:25.320Z,58.40
2018-10-03T19:20:57.251Z,58.60
2018-10-03T19:26:10.129Z,59.20
2018-10-03T19:28:44.198Z,59.50
2018-10-03T19:31:16.521Z,59.50
2018-10-03T19:33:52.618Z,59.80
2018-10-03T19:36:31.490Z,59.70
2018-10-03T19:39:06.322Z,59.60
2018-10-03T19:41:39.004Z,59.70
2018-10-03T19:44:10.972Z,59.80
2018-10-03T19:46:43.611Z,60.00
2018-10-03T19:49:18.172Z,60.10
2018-10-03T19:51:51.075Z,60.40
2018-10-03T19:54:28.387Z,60.50
2018-10-03T19:57:00.291Z,60.60
2018-10-03T19:59:33.890Z,60.40
2018-10-03T20:02:04.697Z,60.70
2018-10-03T20:04:36.448Z,60.60
2018-10-03T20:07:08.113Z,60.90
2018-10-03T20:09:43.755Z,61.10
2018-10-03T20:12:17.117Z,61.30
2018-10-03T20:14:49.570Z,61.50
2018-10-03T20:17:21.308Z,61.50
2018-10-03T20:19:53.245Z,61.80
2018-10-03T20:22:24.437Z,61.80
2018-10-03T20:24:57.048Z,61.80
2018-10-03T20:27:27.788Z,61.80
2018-10-03T20:29:59.870Z,61.80
2018-10-03T20:32:32.053Z,61.90
2018-10-03T20:35:09.465Z,62.00
2018-10-03T20:37:41.269Z,62.40
2018-10-03T20:40:13.955Z,63.40
2018-10-03T20:42:45.743Z,63.80
2018-10-03T20:45:20.201Z,65.30
2018-10-03T20:47:54.775Z,64.80
2018-10-03T20:50:27.498Z,65.50
2018-10-03T20:52:58.902Z,66.00
2018-10-03T20:55:30.201Z,66.30
2018-10-03T20:58:10.513Z,66.30
2018-10-03T21:00:41.661Z,66.50
2018-10-03T21:03:15.750Z,66.90
2018-10-03T21:05:50.772Z,67.00
2018-10-03T21:08:26.992Z,67.30
2018-10-03T21:10:58.258Z,67.30
2018-10-03T21:13:28.590Z,67.20
2018-10-03T21:16:08.545Z,67.30
2018-10-03T21:18:41.869Z,67.30
2018-10-03T21:21:14.389Z,67.10
2018-10-03T21:23:45.688Z,67.10
2018-10-03T21:26:16.843Z,67.10
2018-10-03T21:28:48.026Z,67.30
2018-10-03T21:31:27.942Z,67.60
2018-10-03T21:34:00.686Z,67.80
2018-10-03T21:36:33.553Z,68.40
2018-10-03T21:39:05.417Z,68.80
2018-10-03T21:41:40.255Z,69.40
2018-10-03T21:44:13.360Z,70.30
2018-10-03T21:46:43.515Z,71.00
2018-10-03T21:49:19.163Z,71.70
2018-10-03T21:51:52.935Z,72.70
2018-10-03T21:54:23.243Z,75.20
2018-10-03T21:56:55.409Z,77.30
2018-10-03T21:59:25.664Z,78.00
2018-10-03T22:02:05.283Z,78.80
2018-10-03T22:04:37.285Z,79.50
2018-10-03T22:07:09.582Z,80.60
2018-10-03T22:09:44.200Z,81.00
2018-10-03T22:12:16.444Z,81.40
2018-10-03T22:14:53.660Z,81.60
2018-10-03T22:17:26.242Z,82.00
2018-10-03T22:19:58.941Z,82.10
2018-10-03T22:22:29.036Z,82.10
2018-10-03T22:25:02.336Z,82.50
2018-10-03T22:27:33.434Z,82.80
2018-10-03T22:30:04.366Z,82.90
2018-10-03T22:32:39.955Z,83.10
2018-10-03T22:35:12.134Z,83.50
2018-10-03T22:37:42.586Z,83.60
2018-10-03T22:40:15.141Z,84.20
2018-10-03T22:42:45.482Z,84.20
2018-10-03T22:45:18.567Z,84.60
2018-10-03T22:47:49.672Z,84.40
2018-10-03T22:50:26.672Z,84.10
2018-10-03T22:52:57.410Z,83.60
2018-10-03T22:55:36.614Z,83.20
2018-10-03T22:58:10.182Z,82.70
2018-10-03T23:00:42.015Z,82.70
2018-10-03T23:03:13.639Z,81.70
2018-10-03T23:05:45.920Z,81.10
2018-10-03T23:08:16.253Z,80.90
2018-10-03T23:10:47.804Z,80.60
2018-10-03T23:13:18.140Z,80.30
2018-10-03T23:15:48.666Z,80.90
2018-10-03T23:18:19.446Z,81.40
2018-10-03T23:20:49.980Z,81.70
2018-10-03T23:23:25.256Z,81.90
2018-10-03T23:25:56.681Z,82.30
2018-10-03T23:28:28.673Z,82.50
2018-10-03T23:31:05.584Z,81.60
2018-10-03T23:33:36.034Z,81.10
2018-10-03T23:36:10.157Z,80.80
2018-10-03T23:38:42.457Z,79.00
2018-10-03T23:41:12.561Z,78.00
2018-10-03T23:43:51.060Z,77.30
2018-10-03T23:46:22.303Z,74.70
2018-10-03T23:48:56.217Z,74.30
2018-10-03T23:51:35.381Z,72.70
2018-10-03T23:54:05.799Z,72.20
2018-10-03T23:56:38.567Z,71.70
2018-10-03T23:59:09.023Z,70.90
